createdAt,value
2023-01-23T00:01:33.991Z,95455.56
2023-01-23T00:04:01.164Z,95447.06
2023-01-23T00:06:28.465Z,95476.13
2023-01-23T00:08:58.716Z,95469.59
2023-01-23T00:11:30.293Z,95456.41
2023-01-23T00:13:58.952Z,95461.72
2023-01-23T00:16:28.713Z,95459.75
2023-01-23T00:18:56.021Z,95459.91
2023-01-23T00:21:27.399Z,95435.63
2023-01-23T00:23:57.316Z,95446.41
2023-01-23T00:26:28.075Z,95444.00
2023-01-23T00:28:55.541Z,95464.09
2023-01-23T00:31:26.510Z,95463.41
2023-01-23T00:34:08.361Z,95458.94
2023-01-23T00:36:40.167Z,95437.06
2023-01-23T00:39:17.550Z,95459.84
2023-01-23T00:41:46.664Z,95449.59
2023-01-23T00:44:13.832Z,95451.94
2023-01-23T00:46:40.842Z,95449.59
2023-01-23T00:49:07.747Z,95448.16
2023-01-23T00:51:35.018Z,95449.84
2023-01-23T00:54:02.860Z,95464.56
2023-01-23T00:56:29.659Z,95447.00
2023-01-23T00:58:56.561Z,95468.09
2023-01-23T01:01:23.540Z,95453.97
2023-01-23T01:03:50.524Z,95459.97
2023-01-23T01:06:17.657Z,95477.81
2023-01-23T01:08:44.886Z,95481.44
2023-01-23T01:11:11.924Z,95476.72
2023-01-23T01:13:38.931Z,95493.56
2023-01-23T01:16:06.856Z,95481.09
2023-01-23T01:18:34.126Z,95497.88
2023-01-23T01:21:01.254Z,95489.47
2023-01-23T01:23:28.088Z,95480.34
2023-01-23T01:25:59.999Z,95497.88
2023-01-23T01:28:30.395Z,95482.16
2023-01-23T01:30:58.324Z,95484.44
2023-01-23T01:33:25.836Z,95501.31
2023-01-23T01:35:52.653Z,95504.78
2023-01-23T01:38:19.474Z,95504.94
2023-01-23T01:40:46.239Z,95520.72
2023-01-23T01:43:26.593Z,95521.97
2023-01-23T01:46:17.289Z,95519.59
2023-01-23T01:49:11.247Z,95519.69
2023-01-23T01:51:40.496Z,95513.63
2023-01-23T01:54:31.095Z,95513.31
2023-01-23T01:57:14.750Z,95489.94
2023-01-23T02:00:09.490Z,95503.72
2023-01-23T02:02:54.863Z,95505.28
2023-01-23T02:05:26.741Z,95484.50
2023-01-23T02:08:11.140Z,95498.94
2023-01-23T02:10:38.527Z,95488.75
2023-01-23T02:13:32.617Z,95487.75
2023-01-23T02:16:03.852Z,95467.28
2023-01-23T02:18:32.047Z,95479.66
2023-01-23T02:21:04.972Z,95474.09
2023-01-23T02:23:57.353Z,95499.16
2023-01-23T02:26:30.346Z,95488.16
2023-01-23T02:28:57.475Z,95501.06
2023-01-23T02:31:24.407Z,95493.19
2023-01-23T02:33:55.225Z,95514.38
2023-01-23T02:36:29.617Z,95506.94
2023-01-23T02:39:03.886Z,95518.06
2023-01-23T02:41:39.091Z,95511.25
2023-01-23T02:44:33.799Z,95510.94
2023-01-23T02:47:12.532Z,95520.72
2023-01-23T02:49:40.482Z,95516.69
2023-01-23T02:52:07.435Z,95499.69
2023-01-23T02:54:34.309Z,95503.28
2023-01-23T02:57:01.255Z,95508.59
2023-01-23T02:59:46.826Z,95493.41
2023-01-23T03:02:14.669Z,95491.38
2023-01-23T03:04:41.896Z,95500.63
2023-01-23T03:07:11.475Z,95494.53
2023-01-23T03:09:38.279Z,95482.63
2023-01-23T03:12:05.248Z,95482.56
2023-01-23T03:14:32.504Z,95501.22
2023-01-23T03:16:59.284Z,95483.31
2023-01-23T03:19:27.221Z,95494.91
2023-01-23T03:21:54.836Z,95470.78
2023-01-23T03:24:21.845Z,95487.78
2023-01-23T03:26:50.627Z,95487.31
2023-01-23T03:29:42.511Z,95487.25
2023-01-23T03:32:11.163Z,95494.41
2023-01-23T03:34:38.247Z,95496.81
2023-01-23T03:37:05.623Z,95474.44
2023-01-23T03:39:51.115Z,95485.72
2023-01-23T03:42:17.925Z,95498.34
2023-01-23T03:44:44.708Z,95475.56
2023-01-23T03:47:11.507Z,95485.44
2023-01-23T03:49:38.288Z,95479.59
2023-01-23T03:52:05.284Z,95482.13
2023-01-23T03:54:32.322Z,95486.78
2023-01-23T03:56:59.132Z,95489.63
2023-01-23T03:59:25.913Z,95502.91
2023-01-23T04:01:52.685Z,95493.94
2023-01-23T04:04:19.579Z,95500.31
2023-01-23T04:06:46.382Z,95507.91
2023-01-23T04:09:13.286Z,95516.44
2023-01-23T04:11:40.057Z,95516.03
2023-01-23T04:14:06.864Z,95522.88
2023-01-23T04:16:33.768Z,95504.28
2023-01-23T04:19:00.514Z,95519.47
2023-01-23T04:21:27.385Z,95514.44
2023-01-23T04:23:54.168Z,95517.72
2023-01-23T04:26:20.984Z,95515.19
2023-01-23T04:28:47.759Z,95513.53
2023-01-23T04:31:14.628Z,95521.72
2023-01-23T04:33:41.461Z,95504.41
2023-01-23T04:36:08.509Z,95519.28
2023-01-23T04:38:35.663Z,95503.53
2023-01-23T04:41:03.592Z,95516.78
2023-01-23T04:43:30.750Z,95524.63
2023-01-23T04:45:57.951Z,95521.81
2023-01-23T04:48:25.267Z,95520.28
2023-01-23T04:50:52.249Z,95520.59
2023-01-23T04:53:19.935Z,95512.91
2023-01-23T04:55:49.181Z,95517.94
2023-01-23T04:58:19.156Z,95529.34
2023-01-23T05:00:46.773Z,95514.06
2023-01-23T05:03:14.805Z,95525.06
2023-01-23T05:05:44.242Z,95514.28
2023-01-23T05:08:14.365Z,95502.47
2023-01-23T05:10:41.193Z,95502.81
2023-01-23T05:13:10.223Z,95491.94
2023-01-23T05:15:37.013Z,95495.53
2023-01-23T05:18:03.896Z,95489.00
2023-01-23T05:20:30.652Z,95489.69
2023-01-23T05:22:58.627Z,95505.31
2023-01-23T05:25:28.678Z,95509.09
2023-01-23T05:27:55.756Z,95501.84
2023-01-23T05:30:23.842Z,95518.84
2023-01-23T05:32:50.992Z,95516.41
2023-01-23T05:35:18.233Z,95522.50
2023-01-23T05:37:52.341Z,95527.66
2023-01-23T05:40:20.899Z,95529.31
2023-01-23T05:42:48.331Z,95522.19
2023-01-23T05:45:15.510Z,95526.44
2023-01-23T05:47:42.603Z,95526.28
2023-01-23T05:50:16.371Z,95532.88
2023-01-23T05:52:43.683Z,95532.97
2023-01-23T05:55:10.783Z,95531.59
2023-01-23T05:57:37.586Z,95528.41
2023-01-23T06:00:07.087Z,95546.78
2023-01-23T06:02:34.939Z,95550.66
2023-01-23T06:05:01.835Z,95544.50
2023-01-23T06:07:28.620Z,95526.28
2023-01-23T06:09:55.418Z,95561.22
2023-01-23T06:12:22.172Z,95557.28
2023-01-23T06:14:49.065Z,95550.13
2023-01-23T06:17:16.044Z,95549.50
2023-01-23T06:19:42.842Z,95554.22
2023-01-23T06:22:09.633Z,95559.34
2023-01-23T06:24:36.396Z,95561.91
2023-01-23T06:27:08.225Z,95565.56
2023-01-23T06:29:36.292Z,95568.41
2023-01-23T06:32:04.382Z,95575.19
2023-01-23T06:34:31.199Z,95562.59
2023-01-23T06:36:57.953Z,95582.84
2023-01-23T06:39:24.784Z,95566.69
2023-01-23T06:41:51.604Z,95552.56
2023-01-23T06:44:18.351Z,95575.31
2023-01-23T06:46:45.154Z,95549.50
2023-01-23T06:49:11.963Z,95568.41
2023-01-23T06:51:38.777Z,95574.44
2023-01-23T06:54:06.177Z,95572.59
2023-01-23T06:56:32.929Z,95562.72
2023-01-23T06:58:59.639Z,95569.56
2023-01-23T07:01:26.666Z,95557.56
2023-01-23T07:03:53.657Z,95552.25
2023-01-23T07:06:20.399Z,95571.41
2023-01-23T07:08:47.480Z,95583.13
2023-01-23T07:11:14.234Z,95582.09
2023-01-23T07:13:41.072Z,95575.94
2023-01-23T07:16:08.379Z,95593.09
2023-01-23T07:18:36.112Z,95566.06
2023-01-23T07:21:06.493Z,95589.06
2023-01-23T07:23:34.482Z,95568.81
2023-01-23T07:26:03.729Z,95573.03
2023-01-23T07:28:31.239Z,95589.53
2023-01-23T07:30:59.738Z,95584.91
2023-01-23T07:33:26.851Z,95588.09
2023-01-23T07:35:53.975Z,95603.13
2023-01-23T07:38:23.438Z,95587.81
2023-01-23T07:40:51.671Z,95601.31
2023-01-23T07:43:18.904Z,95601.53
2023-01-23T07:45:45.769Z,95591.75
2023-01-23T07:48:12.557Z,95587.81
2023-01-23T07:50:39.482Z,95584.97
2023-01-23T07:53:06.779Z,95604.81
2023-01-23T07:55:34.130Z,95581.41
2023-01-23T07:58:01.034Z,95591.44
2023-01-23T08:00:29.764Z,95586.97
2023-01-23T08:02:57.230Z,95589.81
2023-01-23T08:05:24.721Z,95599.41
2023-01-23T08:08:00.740Z,95598.44
2023-01-23T08:10:34.250Z,95610.81
2023-01-23T08:13:00.991Z,95595.69
2023-01-23T08:15:27.801Z,95590.38
2023-01-23T08:17:54.520Z,95599.41
2023-01-23T08:20:23.167Z,95586.50
2023-01-23T08:22:49.944Z,95583.03
2023-01-23T08:25:16.936Z,95607.84
2023-01-23T08:27:43.682Z,95602.56
2023-01-23T08:30:11.277Z,95604.22
2023-01-23T08:32:38.022Z,95595.41
2023-01-23T08:35:05.303Z,95605.50
2023-01-23T08:37:33.755Z,95582.16
2023-01-23T08:40:00.643Z,95597.69
2023-01-23T08:42:27.682Z,95577.63
2023-01-23T08:44:54.432Z,95566.53
2023-01-23T08:47:21.400Z,95585.50
2023-01-23T08:49:48.142Z,95566.97
2023-01-23T08:52:14.962Z,95595.53
2023-01-23T08:54:41.688Z,95555.28
2023-01-23T08:57:08.508Z,95566.66
2023-01-23T08:59:35.269Z,95581.03
2023-01-23T09:02:02.544Z,95578.59
2023-01-23T09:04:29.422Z,95584.06
2023-01-23T09:06:56.162Z,95568.19
2023-01-23T09:09:23.079Z,95581.97
2023-01-23T09:11:49.831Z,95589.75
2023-01-23T09:14:16.686Z,95586.41
2023-01-23T09:16:43.450Z,95597.28
2023-01-23T09:19:12.155Z,95603.09
2023-01-23T09:21:38.957Z,95600.84
2023-01-23T09:24:06.063Z,95602.66
2023-01-23T09:26:32.894Z,95590.59
2023-01-23T09:28:59.607Z,95601.16
2023-01-23T09:31:26.418Z,95611.03
2023-01-23T09:33:53.208Z,95606.75
2023-01-23T09:36:27.480Z,95598.25
2023-01-23T09:39:00.828Z,95604.41
2023-01-23T09:41:29.101Z,95602.34
2023-01-23T09:44:20.955Z,95613.28
2023-01-23T09:47:04.962Z,95597.94
2023-01-23T09:50:06.425Z,95597.94
2023-01-23T09:52:43.018Z,95603.25
2023-01-23T09:55:45.583Z,95611.88
2023-01-23T09:58:23.288Z,95603.06
2023-01-23T10:00:51.955Z,95601.94
2023-01-23T10:03:19.558Z,95579.66
2023-01-23T10:06:27.627Z,95598.69
2023-01-23T10:09:23.868Z,95588.31
2023-01-23T10:12:17.259Z,95583.13
2023-01-23T10:15:12.766Z,95587.66
2023-01-23T10:18:10.396Z,95584.94
2023-01-23T10:21:07.261Z,95577.91
2023-01-23T10:23:54.269Z,95571.72
2023-01-23T10:26:26.229Z,95564.56
2023-01-23T10:29:03.678Z,95561.16
2023-01-23T10:31:44.456Z,95555.72
2023-01-23T10:34:11.312Z,95566.41
2023-01-23T10:36:55.114Z,95549.63
2023-01-23T10:39:37.865Z,95550.91
2023-01-23T10:42:12.548Z,95552.00
2023-01-23T10:44:39.862Z,95568.69
2023-01-23T10:47:25.480Z,95554.31
2023-01-23T10:49:53.384Z,95553.41
2023-01-23T10:52:38.054Z,95550.97
2023-01-23T10:55:20.445Z,95544.63
2023-01-23T10:57:50.101Z,95543.63
2023-01-23T11:00:29.622Z,95559.81
2023-01-23T11:02:56.478Z,95521.41
2023-01-23T11:05:51.167Z,95542.19
2023-01-23T11:08:27.811Z,95542.78
2023-01-23T11:11:17.808Z,95524.94
2023-01-23T11:13:50.851Z,95534.09
2023-01-23T11:16:23.367Z,95535.78
2023-01-23T11:19:03.593Z,95535.09
2023-01-23T11:21:34.720Z,95534.41
2023-01-23T11:24:30.613Z,95541.44
2023-01-23T11:27:05.418Z,95532.56
2023-01-23T11:30:25.659Z,95526.16
2023-01-23T11:33:02.277Z,95533.22
2023-01-23T11:35:34.616Z,95516.19
2023-01-23T11:38:04.198Z,95519.59
2023-01-23T11:40:31.559Z,95511.75
2023-01-23T11:42:58.367Z,95508.34
2023-01-23T11:45:49.268Z,95502.81
2023-01-23T11:48:55.683Z,95486.63
2023-01-23T11:52:19.348Z,95477.22
2023-01-23T11:55:11.117Z,95486.25
2023-01-23T11:58:21.140Z,95469.53
2023-01-23T12:01:06.309Z,95460.34
2023-01-23T12:03:57.456Z,95449.16
2023-01-23T12:07:03.053Z,95450.56
2023-01-23T12:09:45.854Z,95451.25
2023-01-23T12:12:39.675Z,95461.81
2023-01-23T12:15:26.553Z,95463.00
2023-01-23T12:18:34.911Z,95461.88
2023-01-23T12:21:33.209Z,95447.34
2023-01-23T12:24:27.472Z,95450.69
2023-01-23T12:27:42.880Z,95461.13
2023-01-23T12:30:43.107Z,95451.88
2023-01-23T12:34:10.662Z,95446.59
2023-01-23T12:37:29.969Z,95455.31
2023-01-23T12:39:59.975Z,95456.22
2023-01-23T12:43:00.525Z,95446.31
2023-01-23T12:45:30.289Z,95444.63
2023-01-23T12:48:06.951Z,95456.09
2023-01-23T12:50:49.934Z,95436.28
2023-01-23T12:53:21.346Z,95457.56
2023-01-23T12:56:07.989Z,95452.69
2023-01-23T12:58:38.106Z,95454.63
2023-01-23T13:01:21.030Z,95452.97
2023-01-23T13:04:29.728Z,95451.13
2023-01-23T13:06:59.437Z,95453.72
2023-01-23T13:10:02.611Z,95459.66
2023-01-23T13:12:31.107Z,95442.63
2023-01-23T13:15:18.978Z,95443.94
2023-01-23T13:18:01.580Z,95444.94
2023-01-23T13:20:53.178Z,95435.84
2023-01-23T13:23:20.031Z,95432.53
2023-01-23T13:25:47.552Z,95427.53
2023-01-23T13:28:45.915Z,95438.53
2023-01-23T13:31:47.276Z,95443.94
2023-01-23T13:34:17.151Z,95452.06
2023-01-23T13:36:54.248Z,95443.16
2023-01-23T13:39:28.147Z,95432.88
2023-01-23T13:42:15.789Z,95436.31
2023-01-23T13:45:16.401Z,95434.81
2023-01-23T14:22:47.769Z,95408.97
2023-01-23T14:25:17.831Z,95419.53
2023-01-23T14:27:53.204Z,95429.59
2023-01-23T14:30:26.923Z,95426.06
2023-01-23T14:32:54.708Z,95400.38
2023-01-23T14:35:32.793Z,95439.88
2023-01-23T14:38:05.224Z,95412.75
2023-01-23T14:40:46.768Z,95418.78
2023-01-23T14:43:30.137Z,95426.88
2023-01-23T14:46:08.298Z,95441.47
2023-01-23T14:48:39.301Z,95444.56
2023-01-23T14:51:19.784Z,95438.69
2023-01-23T14:54:10.239Z,95429.97
2023-01-23T14:56:39.512Z,95445.56
2023-01-23T14:59:18.129Z,95451.09
2023-01-23T15:02:03.370Z,95445.34
2023-01-23T15:04:32.259Z,95441.63
2023-01-23T15:07:01.885Z,95443.03
2023-01-23T15:09:37.564Z,95448.41
2023-01-23T15:12:18.167Z,95448.88
2023-01-23T15:14:45.619Z,95449.78
2023-01-23T15:17:20.455Z,95434.69
2023-01-23T15:20:04.196Z,95451.47
2023-01-23T15:22:32.784Z,95431.63
2023-01-23T15:25:32.920Z,95433.84
2023-01-23T15:27:59.682Z,95437.94
2023-01-23T15:30:46.554Z,95438.13
2023-01-23T15:33:26.554Z,95422.28
2023-01-23T15:36:06.769Z,95438.13
2023-01-23T15:38:34.229Z,95436.44
2023-01-23T15:41:01.272Z,95440.75
2023-01-23T15:43:28.108Z,95445.81
2023-01-23T15:45:55.878Z,95431.84
2023-01-23T15:48:22.656Z,95419.06
2023-01-23T15:50:49.437Z,95433.50
2023-01-23T15:53:16.341Z,95432.94
2023-01-23T15:55:43.537Z,95437.47
2023-01-23T15:58:17.431Z,95438.28
2023-01-23T16:00:44.478Z,95429.03
2023-01-23T16:03:14.652Z,95427.00
2023-01-23T16:05:41.961Z,95446.59
2023-01-23T16:08:34.792Z,95449.25
2023-01-23T16:11:01.585Z,95441.56
2023-01-23T16:13:28.360Z,95430.63
2023-01-23T16:15:55.164Z,95441.53
2023-01-23T16:18:23.963Z,95453.19
2023-01-23T16:20:50.859Z,95445.25
2023-01-23T16:23:24.831Z,95443.09
2023-01-23T16:25:52.365Z,95440.63
2023-01-23T16:28:22.969Z,95444.06
2023-01-23T16:30:51.916Z,95458.97
2023-01-23T16:33:20.296Z,95452.00
2023-01-23T16:35:49.026Z,95451.44
2023-01-23T16:38:26.554Z,95461.41
2023-01-23T16:40:55.112Z,95465.53
2023-01-23T16:43:22.373Z,95453.69
2023-01-23T16:45:49.517Z,95470.16
2023-01-23T16:48:26.374Z,95459.78
2023-01-23T16:51:01.084Z,95452.00
2023-01-23T16:53:36.372Z,95472.56
2023-01-23T16:56:04.830Z,95466.09
2023-01-23T16:58:41.184Z,95470.91
2023-01-23T17:01:20.625Z,95460.19
2023-01-23T17:03:56.747Z,95459.56
2023-01-23T17:06:23.536Z,95469.81
2023-01-23T17:08:50.605Z,95474.25
2023-01-23T17:11:28.392Z,95459.25
2023-01-23T17:14:02.032Z,95482.56
2023-01-23T17:16:29.761Z,95461.84
2023-01-23T17:19:09.753Z,95486.84
2023-01-23T17:21:36.683Z,95470.91
2023-01-23T17:24:03.692Z,95467.94
2023-01-23T17:26:30.571Z,95466.00
2023-01-23T17:28:57.405Z,95472.97
2023-01-23T17:31:28.516Z,95482.41
2023-01-23T17:33:58.399Z,95460.03
2023-01-23T17:36:26.458Z,95495.28
2023-01-23T17:38:59.089Z,95481.19
2023-01-23T17:41:25.975Z,95478.88
2023-01-23T17:43:52.854Z,95478.06
2023-01-23T17:46:27.087Z,95480.38
2023-01-23T17:48:55.796Z,95491.88
2023-01-23T17:51:24.431Z,95486.31
2023-01-23T17:53:52.202Z,95496.88
2023-01-23T17:56:19.020Z,95499.28
2023-01-23T17:58:45.908Z,95494.53
2023-01-23T18:01:22.383Z,95490.81
2023-01-23T18:03:51.370Z,95498.69
2023-01-23T18:06:20.991Z,95492.03
2023-01-23T18:08:47.797Z,95464.28
2023-01-23T18:11:22.858Z,95503.63
2023-01-23T18:14:08.202Z,95504.59
2023-01-23T18:16:49.856Z,95508.28
2023-01-23T18:19:23.441Z,95497.06
2023-01-23T18:21:54.152Z,95499.19
2023-01-23T18:24:32.905Z,95496.34
2023-01-23T18:27:11.800Z,95517.72
2023-01-23T18:30:01.470Z,95511.44
2023-01-23T18:32:40.007Z,95515.22
2023-01-23T18:35:34.087Z,95515.41
2023-01-23T18:38:12.709Z,95516.22
2023-01-23T18:40:59.860Z,95527.25
2023-01-23T18:43:40.039Z,95519.69
2023-01-23T18:46:20.326Z,95515.59
2023-01-23T18:48:49.691Z,95508.16
2023-01-23T18:51:47.248Z,95514.94
2023-01-23T18:54:23.809Z,95510.75
2023-01-23T18:57:46.380Z,95506.88
2023-01-23T19:00:25.956Z,95505.84
2023-01-23T19:02:58.583Z,95519.69
2023-01-23T19:05:33.815Z,95521.59
2023-01-23T19:08:02.364Z,95504.84
2023-01-23T19:10:46.741Z,95525.41
2023-01-23T19:13:29.762Z,95523.09
2023-01-23T19:16:14.300Z,95502.44
2023-01-23T19:18:41.043Z,95523.84
2023-01-23T19:21:26.793Z,95527.09
2023-01-23T19:24:03.625Z,95531.16
2023-01-23T19:26:36.840Z,95527.63
2023-01-23T19:29:20.509Z,95518.28
2023-01-23T19:32:03.558Z,95526.44
2023-01-23T19:34:31.469Z,95524.50
2023-01-23T19:36:58.198Z,95526.97
2023-01-23T19:39:24.945Z,95530.97
2023-01-23T19:41:53.336Z,95533.75
2023-01-23T19:44:24.349Z,95524.94
2023-01-23T19:46:52.000Z,95552.53
2023-01-23T19:49:19.032Z,95533.56
2023-01-23T19:51:46.348Z,95530.41
2023-01-23T19:54:15.275Z,95541.53
2023-01-23T19:56:42.587Z,95556.91
2023-01-23T19:59:09.939Z,95540.03
2023-01-23T20:01:46.806Z,95555.97
2023-01-23T20:04:17.751Z,95549.66
2023-01-23T20:06:49.117Z,95561.50
2023-01-23T20:09:16.236Z,95547.06
2023-01-23T20:11:44.887Z,95542.47
2023-01-23T20:14:12.494Z,95525.34
2023-01-23T20:16:43.127Z,95534.75
2023-01-23T20:19:14.405Z,95565.91
2023-01-23T20:21:41.190Z,95541.53
2023-01-23T20:24:08.449Z,95554.31
2023-01-23T20:26:35.901Z,95537.94
2023-01-23T20:29:04.085Z,95559.59
2023-01-23T20:31:32.023Z,95558.38
2023-01-23T20:33:59.060Z,95540.78
2023-01-23T20:36:25.871Z,95558.09
2023-01-23T20:38:52.627Z,95566.25
2023-01-23T20:41:20.856Z,95573.22
2023-01-23T20:43:48.148Z,95556.34
2023-01-23T20:46:16.267Z,95558.00
2023-01-23T20:48:45.197Z,95565.50
2023-01-23T20:51:15.271Z,95576.38
2023-01-23T20:53:42.839Z,95581.19
2023-01-23T20:56:13.432Z,95568.97
2023-01-23T20:59:02.137Z,95577.47
2023-01-23T21:01:52.551Z,95559.41
2023-01-23T21:04:19.861Z,95578.19
2023-01-23T21:06:46.662Z,95580.03
2023-01-23T21:09:13.654Z,95570.97
2023-01-23T21:11:40.515Z,95569.22
2023-01-23T21:14:07.264Z,95561.34
2023-01-23T21:16:34.041Z,95576.91
2023-01-23T21:19:01.177Z,95565.41
2023-01-23T21:21:27.984Z,95581.16
2023-01-23T21:23:54.839Z,95580.59
2023-01-23T21:26:25.486Z,95579.50
2023-01-23T21:28:54.751Z,95587.28
2023-01-23T21:31:29.110Z,95585.78
2023-01-23T21:33:59.328Z,95592.09
2023-01-23T21:36:26.115Z,95592.25
2023-01-23T21:38:54.088Z,95576.44
2023-01-23T21:41:21.744Z,95588.00
2023-01-23T21:43:48.674Z,95577.50
2023-01-23T21:46:16.167Z,95557.97
2023-01-23T21:48:43.337Z,95577.44
2023-01-23T21:51:15.644Z,95597.19
2023-01-23T21:53:45.717Z,95599.50
2023-01-23T21:56:15.263Z,95593.50
2023-01-23T21:58:44.722Z,95574.47
2023-01-23T22:01:35.859Z,95590.63
2023-01-23T22:04:05.881Z,95599.88
2023-01-23T22:06:34.265Z,95587.34
2023-01-23T22:09:01.664Z,95591.34
2023-01-23T22:11:28.815Z,95593.06
2023-01-23T22:13:56.090Z,95609.13
2023-01-23T22:16:40.150Z,95597.44
2023-01-23T22:19:15.412Z,95607.81
2023-01-23T22:21:43.860Z,95605.97
2023-01-23T22:24:10.771Z,95609.69
2023-01-23T22:26:37.607Z,95612.09
2023-01-23T22:29:04.376Z,95619.59
2023-01-23T22:31:31.200Z,95604.47
2023-01-23T22:33:58.173Z,95612.59
2023-01-23T22:36:25.200Z,95597.25
2023-01-23T22:38:53.736Z,95618.75
2023-01-23T22:41:20.880Z,95604.84
2023-01-23T22:43:52.628Z,95602.84
2023-01-23T22:46:19.626Z,95624.31
2023-01-23T22:48:46.431Z,95633.22
2023-01-23T22:51:20.102Z,95620.16
2023-01-23T22:53:47.268Z,95605.97
2023-01-23T22:56:14.477Z,95617.56
2023-01-23T22:58:49.351Z,95608.91
2023-01-23T23:01:17.289Z,95609.66
2023-01-23T23:03:44.955Z,95622.19
2023-01-23T23:06:14.839Z,95619.75
2023-01-23T23:08:41.996Z,95622.09
2023-01-23T23:11:18.430Z,95615.78
2023-01-23T23:13:46.197Z,95609.75
2023-01-23T23:16:28.896Z,95606.00
2023-01-23T23:18:58.759Z,95609.66
2023-01-23T23:21:30.323Z,95606.75
2023-01-23T23:23:59.067Z,95612.59
2023-01-23T23:26:28.277Z,95616.53
2023-01-23T23:28:55.650Z,95616.22
2023-01-23T23:31:22.575Z,95621.31
2023-01-23T23:33:49.706Z,95624.66
2023-01-23T23:36:16.953Z,95616.97
2023-01-23T23:38:44.507Z,95605.56
2023-01-23T23:41:15.814Z,95607.06
2023-01-23T23:43:43.757Z,95603.44
2023-01-23T23:46:12.702Z,95612.81
2023-01-23T23:48:39.653Z,95603.63
2023-01-23T23:51:10.716Z,95613.44
2023-01-23T23:53:37.607Z,95603.19
2023-01-23T23:56:05.601Z,95632.91
2023-01-23T23:58:35.702Z,95618.00
